createdAt,value
2018-06-25T00:00:20.269Z,5.70
2018-06-25T00:02:50.136Z,6.50
2018-06-25T00:05:19.499Z,6.53
2018-06-25T00:07:49.252Z,6.80
2018-06-25T00:10:18.644Z,7.40
2018-06-25T00:12:48.024Z,6.63
2018-06-25T00:15:17.379Z,6.53
2018-06-25T00:17:46.860Z,6.93
2018-06-25T00:20:15.955Z,6.53
2018-06-25T00:22:45.140Z,8.10
2018-06-25T00:25:14.531Z,7.60
2018-06-25T00:27:43.798Z,7.30
2018-06-25T00:30:13.098Z,6.77
2018-06-25T00:32:42.700Z,6.00
2018-06-25T00:35:12.157Z,8.00
2018-06-25T00:37:41.415Z,7.63
2018-06-25T00:40:10.804Z,7.40
2018-06-25T00:42:40.079Z,8.00
2018-06-25T00:45:09.344Z,7.97
2018-06-25T00:47:38.872Z,8.97
2018-06-25T00:50:08.257Z,9.20
2018-06-25T00:52:37.646Z,9.13
2018-06-25T00:55:06.995Z,8.77
2018-06-25T00:57:36.284Z,9.93
2018-06-25T01:00:05.651Z,9.40
2018-06-25T01:02:34.958Z,9.40
2018-06-25T01:05:04.232Z,10.33
2018-06-25T01:07:33.527Z,14.43
2018-06-25T01:10:03.274Z,11.90
2018-06-25T01:12:32.739Z,12.80
2018-06-25T01:15:02.072Z,11.73
2018-06-25T01:17:31.533Z,11.53
2018-06-25T01:20:00.950Z,11.60
2018-06-25T01:22:30.543Z,14.50
2018-06-25T01:25:00.267Z,14.50
2018-06-25T01:27:29.768Z,14.40
2018-06-25T01:29:59.138Z,13.20
2018-06-25T01:32:28.988Z,12.87
2018-06-25T01:34:58.337Z,13.17
2018-06-25T01:37:28.127Z,15.77
2018-06-25T01:39:57.836Z,15.53
2018-06-25T01:42:27.371Z,16.07
2018-06-25T01:44:56.605Z,16.27
2018-06-25T01:47:26.332Z,15.33
2018-06-25T01:49:56.169Z,15.63
2018-06-25T01:52:25.673Z,15.60
2018-06-25T01:54:55.243Z,15.30
2018-06-25T01:57:24.787Z,16.07
2018-06-25T01:59:54.488Z,15.77
2018-06-25T02:02:23.889Z,14.87
2018-06-25T02:04:53.476Z,17.17
2018-06-25T02:07:22.938Z,17.90
2018-06-25T02:09:52.878Z,18.03
2018-06-25T02:12:22.321Z,16.87
2018-06-25T02:14:51.988Z,18.37
2018-06-25T02:17:21.963Z,15.37
2018-06-25T02:19:51.495Z,15.57
2018-06-25T02:22:21.099Z,16.90
2018-06-25T02:24:50.667Z,16.40
2018-06-25T02:27:20.236Z,17.63
2018-06-25T02:29:50.078Z,17.17
2018-06-25T02:32:19.547Z,19.30
2018-06-25T02:34:48.868Z,20.00
2018-06-25T02:37:18.423Z,17.60
2018-06-25T02:39:48.580Z,19.23
2018-06-25T02:42:18.075Z,19.97
2018-06-25T02:44:47.548Z,19.37
2018-06-25T02:47:17.007Z,18.23
2018-06-25T02:49:46.507Z,19.00
2018-06-25T02:52:16.170Z,20.30
2018-06-25T02:54:45.956Z,19.83
2018-06-25T02:57:15.494Z,19.00
2018-06-25T02:59:45.002Z,19.23
2018-06-25T03:02:15.049Z,19.90
2018-06-25T03:04:44.368Z,17.80
2018-06-25T03:07:13.825Z,18.20
2018-06-25T03:09:42.905Z,20.20
2018-06-25T03:12:12.191Z,19.17
2018-06-25T03:14:42.043Z,19.80
2018-06-25T03:17:11.357Z,22.33
2018-06-25T03:19:40.606Z,20.13
2018-06-25T03:22:10.078Z,19.67
2018-06-25T03:24:39.506Z,21.50
2018-06-25T03:27:08.802Z,20.63
2018-06-25T03:29:38.116Z,18.73
2018-06-25T03:32:07.548Z,18.00
2018-06-25T03:34:36.893Z,18.07
2018-06-25T03:37:06.210Z,16.20
2018-06-25T03:39:35.494Z,15.30
2018-06-25T03:42:04.823Z,14.00
2018-06-25T03:44:34.092Z,13.03
2018-06-25T03:47:03.806Z,11.93
2018-06-25T03:49:33.127Z,11.57
2018-06-25T03:52:02.424Z,10.10
2018-06-25T03:54:31.728Z,12.10
2018-06-25T03:57:01.075Z,10.13
2018-06-25T03:59:30.364Z,9.90
2018-06-25T04:01:59.663Z,9.93
2018-06-25T04:04:28.962Z,10.17
2018-06-25T04:06:58.326Z,8.80
2018-06-25T04:09:27.665Z,9.20
2018-06-25T04:11:56.961Z,9.40
2018-06-25T04:14:26.350Z,8.93
2018-06-25T04:16:55.675Z,9.60
2018-06-25T04:19:24.953Z,7.87
2018-06-25T04:21:54.344Z,7.53
2018-06-25T04:24:23.675Z,7.30
2018-06-25T04:26:53.077Z,7.43
2018-06-25T04:29:22.387Z,7.87
2018-06-25T04:31:51.773Z,7.10
2018-06-25T04:34:21.115Z,5.97
2018-06-25T04:36:50.390Z,6.53
2018-06-25T04:39:19.679Z,5.80
2018-06-25T04:41:48.987Z,5.80
2018-06-25T04:44:18.318Z,5.00
2018-06-25T04:46:47.611Z,5.43
2018-06-25T04:49:16.926Z,5.80
2018-06-25T04:51:46.286Z,5.80
2018-06-25T04:54:16.129Z,5.60
2018-06-25T04:56:45.535Z,6.07
2018-06-25T04:59:14.908Z,5.97
2018-06-25T05:01:44.247Z,6.40
2018-06-25T05:04:13.530Z,6.77
2018-06-25T05:06:42.839Z,6.30
2018-06-25T05:09:12.255Z,6.40
2018-06-25T05:11:42.050Z,6.20
2018-06-25T05:14:11.373Z,6.23
2018-06-25T05:16:41.110Z,6.30
2018-06-25T05:19:10.572Z,6.27
2018-06-25T05:21:39.987Z,5.70
2018-06-25T05:24:09.390Z,6.10
2018-06-25T05:26:38.635Z,6.37
2018-06-25T05:29:07.973Z,5.90
2018-06-25T05:31:37.366Z,6.67
2018-06-25T05:34:06.791Z,6.87
2018-06-25T05:36:36.101Z,7.30
2018-06-25T05:39:09.725Z,6.87
2018-06-25T05:41:39.023Z,6.93
2018-06-25T05:44:08.460Z,6.03
2018-06-25T05:46:37.787Z,5.97
2018-06-25T05:49:07.267Z,6.30
2018-06-25T05:51:36.567Z,5.97
2018-06-25T05:54:05.938Z,5.50
2018-06-25T05:56:35.256Z,5.27
2018-06-25T05:59:04.613Z,4.70
2018-06-25T06:01:34.157Z,6.20
2018-06-25T06:04:03.511Z,5.37
2018-06-25T06:06:32.605Z,5.10
2018-06-25T06:09:02.008Z,6.13
2018-06-25T06:11:31.355Z,5.23
2018-06-25T06:14:00.481Z,6.47
2018-06-25T06:16:29.549Z,6.30
2018-06-25T06:18:58.737Z,8.10
2018-06-25T06:21:28.023Z,7.10
2018-06-25T06:23:57.946Z,6.40
2018-06-25T06:26:27.311Z,6.63
2018-06-25T06:28:56.662Z,6.40
2018-06-25T06:31:25.724Z,6.93
2018-06-25T06:33:55.039Z,7.33
2018-06-25T06:36:24.403Z,8.80
2018-06-25T06:38:53.763Z,8.93
2018-06-25T06:41:23.097Z,8.93
2018-06-25T06:43:52.477Z,8.73
2018-06-25T06:46:22.099Z,9.50
2018-06-25T06:48:51.419Z,8.43
2018-06-25T06:51:20.715Z,9.13
2018-06-25T06:53:50.082Z,7.93
2018-06-25T06:56:19.443Z,7.43
2018-06-25T06:58:48.798Z,6.80
2018-06-25T07:01:18.401Z,7.23
2018-06-25T07:03:47.456Z,6.47
2018-06-25T07:06:16.829Z,6.40
2018-06-25T07:08:46.791Z,7.50
2018-06-25T07:11:16.200Z,7.67
2018-06-25T07:13:45.510Z,7.50
2018-06-25T07:16:17.772Z,6.93
2018-06-25T07:18:47.279Z,4.90
2018-06-25T07:21:16.595Z,5.17
2018-06-25T07:23:45.967Z,6.10
2018-06-25T07:26:21.663Z,6.60
2018-06-25T07:28:51.001Z,5.97
2018-06-25T07:31:20.286Z,5.60
2018-06-25T07:33:49.696Z,4.90
2018-06-25T07:36:19.021Z,6.63
2018-06-25T07:38:48.398Z,7.57
2018-06-25T07:41:18.607Z,6.40
2018-06-25T07:43:47.917Z,5.57
2018-06-25T07:46:17.250Z,5.50
2018-06-25T07:48:47.085Z,5.87
2018-06-25T07:51:16.399Z,5.60
2018-06-25T07:53:45.694Z,5.10
2018-06-25T07:56:15.032Z,6.00
2018-06-25T07:58:44.365Z,6.97
2018-06-25T08:01:13.660Z,5.60
2018-06-25T08:03:43.072Z,5.87
2018-06-25T08:06:12.401Z,5.50
2018-06-25T08:08:41.835Z,4.90
2018-06-25T08:11:11.314Z,5.20
2018-06-25T08:13:40.719Z,5.50
2018-06-25T08:16:10.129Z,5.97
2018-06-25T08:18:39.290Z,5.37
2018-06-25T08:21:08.679Z,5.60
2018-06-25T08:23:38.064Z,5.73
2018-06-25T08:26:07.428Z,6.67
2018-06-25T08:28:36.747Z,6.03
2018-06-25T08:31:06.096Z,5.63
2018-06-25T08:33:35.723Z,6.90
2018-06-25T08:36:05.125Z,6.33
2018-06-25T08:38:34.487Z,5.83
2018-06-25T08:41:03.854Z,6.20
2018-06-25T08:43:33.191Z,6.70
2018-06-25T08:46:02.605Z,7.20
2018-06-25T08:48:32.030Z,6.33
2018-06-25T08:51:01.360Z,6.27
2018-06-25T08:53:30.755Z,7.00
2018-06-25T08:56:00.517Z,6.83
2018-06-25T08:58:29.961Z,7.40
2018-06-25T09:00:59.380Z,7.63
2018-06-25T09:03:28.827Z,7.07
2018-06-25T09:05:58.127Z,6.63
2018-06-25T09:08:27.546Z,6.80
2018-06-25T09:10:56.872Z,7.03
2018-06-25T09:13:26.330Z,6.10
2018-06-25T09:15:55.769Z,6.83
2018-06-25T09:18:25.436Z,6.40
2018-06-25T09:20:54.514Z,6.40
2018-06-25T09:23:23.796Z,6.93
2018-06-25T09:25:53.139Z,6.93
2018-06-25T09:28:22.469Z,7.50
2018-06-25T09:30:51.766Z,7.50
2018-06-25T09:33:21.112Z,6.67
2018-06-25T09:35:50.480Z,7.70
2018-06-25T09:38:19.934Z,8.40
2018-06-25T09:40:49.585Z,7.73
2018-06-25T09:43:18.910Z,7.80
2018-06-25T09:45:48.245Z,8.93
2018-06-25T09:48:17.639Z,8.20
2018-06-25T09:50:46.944Z,9.50
2018-06-25T09:53:16.285Z,8.17
2018-06-25T09:55:45.677Z,9.00
2018-06-25T09:58:15.018Z,8.10
2018-06-25T10:00:49.628Z,7.37
2018-06-25T10:03:19.034Z,9.50
2018-06-25T10:05:48.359Z,8.83
2018-06-25T10:08:17.743Z,8.80
2018-06-25T10:10:47.068Z,7.40
2018-06-25T10:13:16.408Z,7.50
2018-06-25T10:15:45.769Z,7.40
2018-06-25T10:18:15.126Z,7.33
2018-06-25T10:20:44.407Z,7.30
2018-06-25T10:23:13.589Z,9.00
2018-06-25T10:25:42.918Z,6.73
2018-06-25T10:28:12.295Z,8.27
2018-06-25T10:30:41.676Z,7.70
2018-06-25T10:33:11.029Z,7.00
2018-06-25T10:35:40.348Z,7.40
2018-06-25T10:38:09.707Z,7.30
2018-06-25T10:40:39.136Z,7.03
2018-06-25T10:43:08.584Z,6.30
2018-06-25T10:45:38.145Z,8.80
2018-06-25T10:48:07.537Z,8.20
2018-06-25T10:50:36.850Z,7.90
2018-06-25T10:53:06.235Z,7.90
2018-06-25T10:55:35.565Z,8.13
2018-06-25T10:58:04.885Z,7.70
2018-06-25T11:00:34.245Z,8.80
2018-06-25T11:03:03.697Z,7.80
2018-06-25T11:05:32.999Z,8.30
2018-06-25T11:08:02.656Z,7.77
2018-06-25T11:10:32.090Z,9.80
2018-06-25T11:13:01.511Z,8.13
2018-06-25T11:15:30.828Z,8.87
2018-06-25T11:18:00.197Z,8.90
2018-06-25T11:20:29.519Z,8.80
2018-06-25T11:22:58.842Z,7.63
2018-06-25T11:25:28.139Z,8.53
2018-06-25T11:27:57.687Z,8.60
2018-06-25T11:30:27.412Z,8.13
2018-06-25T11:32:56.713Z,8.17
2018-06-25T11:35:26.047Z,7.80
2018-06-25T11:37:55.389Z,8.67
2018-06-25T11:40:24.775Z,9.13
2018-06-25T11:42:54.118Z,7.20
2018-06-25T11:45:23.484Z,9.00
2018-06-25T11:47:52.837Z,8.70
2018-06-25T11:50:22.202Z,8.70
2018-06-25T11:52:51.631Z,7.80
2018-06-25T11:55:21.029Z,7.60
2018-06-25T11:57:50.395Z,7.40
2018-06-25T12:00:19.739Z,7.17
2018-06-25T12:02:49.161Z,8.00
2018-06-25T12:05:18.398Z,8.07
2018-06-25T12:07:47.776Z,8.50
2018-06-25T12:10:17.083Z,9.50
2018-06-25T12:12:46.370Z,8.93
2018-06-25T12:15:16.223Z,8.70
2018-06-25T12:17:45.538Z,8.57
2018-06-25T12:20:14.891Z,15.33
2018-06-25T12:22:44.269Z,8.67
2018-06-25T12:25:13.581Z,7.90
2018-06-25T12:27:42.977Z,9.00
2018-06-25T12:30:12.360Z,7.67
2018-06-25T12:32:41.723Z,7.77
2018-06-25T12:35:11.404Z,8.70
2018-06-25T12:37:41.028Z,7.83
2018-06-25T12:40:10.361Z,7.73
2018-06-25T12:42:39.704Z,8.33
2018-06-25T12:45:08.904Z,7.90
2018-06-25T12:47:38.359Z,7.50
2018-06-25T12:50:07.736Z,7.37
2018-06-25T12:52:37.157Z,7.40
2018-06-25T12:55:06.536Z,6.70
2018-06-25T12:57:36.203Z,7.17
2018-06-25T13:00:05.670Z,7.33
2018-06-25T13:02:35.029Z,9.07
2018-06-25T13:05:04.495Z,9.00
2018-06-25T13:07:33.847Z,7.30
2018-06-25T13:10:03.206Z,7.60
2018-06-25T13:12:32.539Z,7.93
2018-06-25T13:15:02.284Z,8.00
2018-06-25T13:17:31.548Z,7.73
2018-06-25T13:20:00.813Z,7.60
2018-06-25T13:22:30.671Z,6.53
2018-06-25T13:25:00.011Z,7.63
2018-06-25T13:27:29.307Z,7.70
2018-06-25T13:29:58.691Z,8.03
2018-06-25T13:32:28.058Z,7.53
2018-06-25T13:34:57.372Z,7.90
2018-06-25T13:37:26.719Z,7.23
2018-06-25T13:39:56.036Z,6.73
2018-06-25T13:42:25.431Z,7.07
2018-06-25T13:44:55.413Z,7.40
2018-06-25T13:47:24.766Z,7.13
2018-06-25T13:49:54.107Z,7.13
2018-06-25T13:52:23.410Z,7.60
2018-06-25T13:54:52.780Z,7.10
2018-06-25T13:57:22.088Z,7.80
2018-06-25T13:59:51.583Z,7.23
2018-06-25T14:02:20.900Z,8.33
2018-06-25T14:04:50.221Z,6.73
2018-06-25T14:07:19.913Z,7.27
2018-06-25T14:09:49.220Z,7.00
2018-06-25T14:12:18.632Z,6.57
2018-06-25T14:14:47.986Z,7.20
2018-06-25T14:17:17.314Z,7.47
2018-06-25T14:19:46.662Z,8.20
2018-06-25T14:22:16.022Z,6.90
2018-06-25T14:24:49.675Z,7.63
2018-06-25T14:27:19.560Z,7.30
2018-06-25T14:29:48.885Z,7.70
2018-06-25T14:32:23.447Z,8.73
2018-06-25T14:34:58.061Z,8.10
2018-06-25T14:37:27.471Z,6.63
2018-06-25T14:39:56.782Z,7.63
2018-06-25T14:42:26.214Z,6.80
2018-06-25T14:44:55.790Z,8.27
2018-06-25T14:47:25.054Z,6.10
2018-06-25T14:49:54.358Z,6.97
2018-06-25T14:52:23.756Z,7.33
2018-06-25T14:54:53.085Z,6.87
2018-06-25T14:57:22.830Z,6.57
2018-06-25T14:59:52.211Z,7.80
2018-06-25T15:02:21.539Z,7.17
2018-06-25T15:04:50.845Z,6.80
2018-06-25T15:07:20.560Z,5.93
2018-06-25T15:09:49.838Z,6.27
2018-06-25T15:12:19.164Z,7.33
2018-06-25T15:14:48.570Z,6.87
2018-06-25T15:17:18.177Z,7.70
2018-06-25T15:19:47.671Z,6.00
2018-06-25T15:22:17.067Z,6.60
2018-06-25T15:24:46.639Z,6.27
2018-06-25T15:27:15.942Z,5.60
2018-06-25T15:29:45.431Z,6.67
2018-06-25T15:32:14.783Z,8.33
2018-06-25T15:34:44.286Z,6.30
2018-06-25T15:37:13.687Z,6.40
2018-06-25T15:39:43.008Z,6.23
2018-06-25T15:42:12.394Z,8.07
2018-06-25T15:44:41.751Z,6.20
2018-06-25T15:47:11.100Z,7.07
2018-06-25T15:49:40.738Z,6.63
2018-06-25T15:52:10.150Z,6.03
2018-06-25T15:54:39.431Z,6.57
2018-06-25T15:57:09.202Z,7.33
2018-06-25T15:59:38.534Z,6.57
2018-06-25T16:02:07.855Z,8.50
2018-06-25T16:04:37.181Z,6.37
2018-06-25T16:07:06.524Z,6.90
2018-06-25T16:09:35.955Z,5.50
2018-06-25T16:12:05.332Z,6.40
2018-06-25T16:14:34.784Z,6.70
2018-06-25T16:17:04.164Z,7.10
2018-06-25T16:19:34.246Z,6.40
2018-06-25T16:22:03.537Z,6.20
2018-06-25T16:24:33.076Z,6.73
2018-06-25T16:27:02.613Z,7.50
2018-06-25T16:29:31.976Z,7.40
2018-06-25T16:32:01.290Z,6.40
2018-06-25T16:34:30.663Z,6.90
2018-06-25T16:37:00.712Z,6.27
2018-06-25T16:39:30.337Z,7.17
2018-06-25T16:41:59.754Z,7.03
2018-06-25T16:44:29.131Z,6.47
2018-06-25T16:46:58.504Z,8.00
2018-06-25T16:49:28.051Z,6.20
2018-06-25T16:51:57.488Z,7.00
2018-06-25T16:54:26.955Z,7.03
2018-06-25T16:56:56.376Z,7.33
2018-06-25T16:59:26.063Z,6.20
2018-06-25T17:01:55.559Z,6.40
2018-06-25T17:04:25.148Z,7.17
2018-06-25T17:06:54.818Z,6.83
2018-06-25T17:09:24.404Z,7.00
2018-06-25T17:11:53.835Z,7.23
2018-06-25T17:14:23.334Z,8.00
2018-06-25T17:16:52.808Z,6.23
2018-06-25T17:19:24.679Z,6.60
2018-06-25T17:21:54.305Z,6.80
2018-06-25T17:24:23.687Z,7.00
2018-06-25T17:26:53.321Z,6.10
2018-06-25T17:29:22.772Z,5.60
2018-06-25T17:31:52.704Z,5.27
2018-06-25T17:34:22.490Z,6.40
2018-06-25T17:36:52.016Z,6.90
2018-06-25T17:39:21.755Z,6.40
2018-06-25T17:41:51.352Z,5.80
2018-06-25T17:44:20.781Z,7.07
2018-06-25T17:46:50.173Z,5.13
2018-06-25T17:49:19.826Z,6.30
2018-06-25T17:51:49.236Z,6.03
2018-06-25T17:54:18.707Z,6.10
2018-06-25T17:56:48.215Z,6.20
2018-06-25T17:59:17.620Z,4.90
2018-06-25T18:01:46.819Z,4.80
2018-06-25T18:04:16.268Z,4.40
2018-06-25T18:06:45.671Z,4.67
2018-06-25T18:09:15.113Z,4.43
2018-06-25T18:11:44.549Z,4.60
2018-06-25T18:14:13.959Z,4.87
2018-06-25T18:16:43.334Z,4.57
2018-06-25T18:19:12.948Z,4.80
2018-06-25T18:21:42.380Z,4.73
2018-06-25T18:24:11.790Z,5.37
2018-06-25T18:26:41.226Z,5.70
2018-06-25T18:29:10.643Z,5.00
2018-06-25T18:31:40.088Z,5.10
2018-06-25T18:34:09.707Z,4.80
2018-06-25T18:36:39.147Z,5.00
2018-06-25T18:39:11.634Z,3.90
2018-06-25T18:41:41.135Z,4.80
2018-06-25T18:44:10.551Z,5.40
2018-06-25T18:46:40.312Z,4.70
2018-06-25T18:49:09.717Z,4.20
2018-06-25T18:51:39.237Z,4.43
2018-06-25T18:54:08.889Z,4.83
2018-06-25T18:56:38.428Z,4.50
2018-06-25T18:59:08.060Z,5.17
2018-06-25T19:01:37.631Z,4.90
2018-06-25T19:04:07.164Z,4.43
2018-06-25T19:06:36.731Z,5.07
2018-06-25T19:09:10.685Z,5.10
2018-06-25T19:11:39.548Z,4.90
2018-06-25T19:14:09.043Z,4.57
2018-06-25T19:16:38.227Z,5.70
2018-06-25T19:19:07.614Z,4.43
2018-06-25T19:21:37.201Z,4.33
2018-06-25T19:24:06.622Z,5.00
2018-06-25T19:26:36.345Z,5.37
2018-06-25T19:29:06.172Z,5.50
2018-06-25T19:31:35.918Z,5.67
2018-06-25T19:34:05.444Z,5.47
2018-06-25T19:36:35.526Z,5.50
2018-06-25T19:39:10.770Z,6.00
2018-06-25T19:41:40.479Z,5.40
2018-06-25T19:44:10.894Z,5.80
2018-06-25T19:46:40.722Z,6.57
2018-06-25T19:49:10.458Z,6.40
2018-06-25T19:51:39.955Z,6.80
2018-06-25T19:54:09.541Z,6.40
2018-06-25T19:56:39.317Z,7.07
2018-06-25T19:59:09.345Z,7.00
2018-06-25T20:01:38.950Z,7.00
2018-06-25T20:04:08.812Z,6.63
2018-06-25T20:06:38.340Z,7.83
2018-06-25T20:09:11.556Z,6.80
2018-06-25T20:11:41.853Z,7.63
2018-06-25T20:14:11.583Z,6.90
2018-06-25T20:16:41.705Z,7.40
2018-06-25T20:19:11.076Z,7.50
2018-06-25T20:21:40.490Z,7.97
2018-06-25T20:24:09.861Z,8.27
2018-06-25T20:26:39.286Z,9.00
2018-06-25T20:29:08.758Z,9.97
2018-06-25T20:31:38.652Z,9.27
2018-06-25T20:34:08.242Z,10.07
2018-06-25T20:36:37.959Z,9.70
2018-06-25T20:39:11.054Z,9.70
2018-06-25T20:41:40.795Z,10.10
2018-06-25T20:44:10.357Z,10.03
2018-06-25T20:46:40.060Z,9.50
2018-06-25T20:49:09.422Z,10.00
2018-06-25T20:51:38.920Z,11.50
2018-06-25T20:54:09.211Z,11.17
2018-06-25T20:56:38.727Z,9.17
2018-06-25T20:59:08.141Z,9.80
2018-06-25T21:01:37.629Z,9.60
2018-06-25T21:04:07.192Z,9.40
2018-06-25T21:06:36.630Z,8.43
2018-06-25T21:09:09.878Z,8.90
2018-06-25T21:11:39.797Z,9.27
2018-06-25T21:14:09.255Z,8.40
2018-06-25T21:16:38.702Z,8.10
2018-06-25T21:19:07.820Z,8.23
2018-06-25T21:21:37.278Z,7.73
2018-06-25T21:24:07.365Z,8.00
2018-06-25T21:26:37.120Z,9.77
2018-06-25T21:29:06.298Z,8.83
2018-06-25T21:31:35.989Z,8.03
2018-06-25T21:34:05.461Z,7.90
2018-06-25T21:36:34.824Z,7.90
2018-06-25T21:39:06.268Z,7.50
2018-06-25T21:41:35.652Z,7.40
2018-06-25T21:44:05.561Z,8.90
2018-06-25T21:46:35.258Z,7.30
2018-06-25T21:49:04.639Z,7.43
2018-06-25T21:51:34.034Z,7.67
2018-06-25T21:54:03.739Z,8.47
2018-06-25T21:56:33.094Z,8.30
2018-06-25T21:59:02.550Z,8.00
2018-06-25T22:01:32.100Z,9.23
2018-06-25T22:04:01.546Z,7.70
2018-06-25T22:06:30.936Z,7.50
2018-06-25T22:09:00.368Z,8.33
2018-06-25T22:11:29.733Z,8.60
2018-06-25T22:13:59.259Z,7.83
2018-06-25T22:16:28.945Z,8.13
2018-06-25T22:18:58.290Z,7.13
2018-06-25T22:21:27.683Z,8.50
2018-06-25T22:23:57.085Z,7.33
2018-06-25T22:26:26.548Z,7.03
2018-06-25T22:28:55.912Z,6.87
2018-06-25T22:31:25.489Z,6.90
2018-06-25T22:33:55.608Z,7.50
2018-06-25T22:36:25.007Z,8.00
2018-06-25T22:38:54.381Z,6.70
2018-06-25T22:41:24.036Z,6.90
2018-06-25T22:43:53.867Z,6.80
2018-06-25T22:46:23.430Z,6.30
2018-06-25T22:48:53.166Z,7.07
2018-06-25T22:51:22.466Z,6.47
2018-06-25T22:53:51.798Z,7.03
2018-06-25T22:56:21.132Z,7.00
2018-06-25T22:58:50.509Z,7.07
2018-06-25T23:01:20.455Z,7.50
2018-06-25T23:03:50.259Z,6.67
2018-06-25T23:06:19.891Z,8.17
2018-06-25T23:08:49.310Z,5.83
2018-06-25T23:11:19.018Z,6.10
2018-06-25T23:13:48.831Z,6.73
2018-06-25T23:16:18.479Z,7.17
2018-06-25T23:18:48.001Z,7.00
2018-06-25T23:21:17.343Z,6.63
2018-06-25T23:23:46.763Z,6.20
2018-06-25T23:26:16.039Z,6.93
2018-06-25T23:28:46.567Z,6.23
2018-06-25T23:31:16.427Z,6.63
2018-06-25T23:33:45.819Z,6.67
2018-06-25T23:36:15.150Z,6.63
2018-06-25T23:38:44.531Z,7.37
2018-06-25T23:41:14.006Z,6.53
2018-06-25T23:43:43.380Z,7.40
2018-06-25T23:46:12.824Z,6.50
2018-06-25T23:48:42.134Z,6.80
2018-06-25T23:51:11.520Z,6.37
2018-06-25T23:53:40.901Z,7.07
2018-06-25T23:56:10.203Z,6.87
2018-06-25T23:58:39.522Z,7.33
